Time;durP1;ratioP1;P1;durP2;ratioP2;P2;SDS_P1;SDS_P2;PMS_P1;PMS_P2;Temp;Humidity;BMP_temperature;BMP_pressure;BME280_temperature;BME280_humidity;BME280_pressure;Samples;Min_cycle;Max_cycle;Signal;HPM_P1;HPM_P2
2024/02/06 00:00:33;;;;;;;12.20;3.65;;;7.70;99.90;;;;;;4972539;28;20042;-62
2024/02/06 00:02:59;;;;;;;10.73;4.32;;;7.80;99.90;;;;;;4970006;28;20479;-61
2024/02/06 00:05:25;;;;;;;12.48;3.88;;;7.80;99.90;;;;;;4969970;28;20022;-61
2024/02/06 00:07:50;;;;;;;12.23;5.00;;;7.80;99.90;;;;;;4971563;28;20038;-61
2024/02/06 00:10:16;;;;;;;10.45;4.30;;;7.80;99.90;;;;;;4954239;28;20054;-63
2024/02/06 00:12:42;;;;;;;11.23;4.78;;;7.90;99.90;;;;;;4971845;28;20025;-62
2024/02/06 00:15:08;;;;;;;15.10;5.15;;;7.80;99.90;;;;;;4971740;28;20591;-63
2024/02/06 00:17:33;;;;;;;11.82;5.07;;;7.90;99.90;;;;;;4970547;28;20042;-63
2024/02/06 00:20:00;;;;;;;13.48;3.35;;;7.90;99.90;;;;;;4969776;28;20188;-63
2024/02/06 00:22:27;;;;;;;13.23;4.38;;;7.90;99.90;;;;;;4952447;28;20180;-63
2024/02/06 00:24:53;;;;;;;15.50;3.95;;;7.90;99.90;;;;;;4971650;28;20026;-63
2024/02/06 00:27:18;;;;;;;12.73;4.07;;;7.90;99.90;;;;;;4971992;28;20098;-62
2024/02/06 00:29:44;;;;;;;11.55;3.85;;;7.90;99.90;;;;;;4972117;28;20027;-63
2024/02/06 00:32:11;;;;;;;11.50;3.60;;;7.90;99.90;;;;;;4971883;28;20067;-63
2024/02/06 00:34:37;;;;;;;12.55;4.63;;;8.00;99.90;;;;;;4971683;28;20022;-63
2024/02/06 00:37:03;;;;;;;10.50;3.55;;;8.00;99.90;;;;;;4970651;28;20031;-63
2024/02/06 00:39:28;;;;;;;15.70;4.82;;;8.00;99.90;;;;;;4954560;28;20077;-63
2024/02/06 00:41:55;;;;;;;10.48;4.28;;;8.00;99.90;;;;;;4971610;28;20057;-63
2024/02/06 00:44:20;;;;;;;10.88;4.38;;;8.00;99.90;;;;;;4971355;28;20043;-63
2024/02/06 00:46:46;;;;;;;15.07;5.88;;;8.00;99.90;;;;;;4969552;28;20018;-63
2024/02/06 00:49:12;;;;;;;11.68;3.95;;;8.00;99.90;;;;;;4971463;28;20053;-63
2024/02/06 00:51:37;;;;;;;10.55;3.88;;;8.00;99.90;;;;;;4969152;28;20035;-62
2024/02/06 00:54:03;;;;;;;14.32;3.85;;;8.10;99.90;;;;;;4953357;28;20028;-62
2024/02/06 00:56:29;;;;;;;11.18;4.70;;;8.10;99.90;;;;;;4970682;28;20106;-62
2024/02/06 00:58:55;;;;;;;13.90;5.78;;;8.00;99.90;;;;;;4969673;28;20031;-62
2024/02/06 01:01:21;;;;;;;15.20;4.43;;;8.10;99.90;;;;;;4970881;28;20030;-63
2024/02/06 01:03:46;;;;;;;9.73;3.88;;;8.10;99.90;;;;;;4970993;28;20014;-62
2024/02/06 01:06:12;;;;;;;12.15;4.93;;;8.00;99.90;;;;;;4967355;28;20037;-63
2024/02/06 01:08:37;;;;;;;15.20;5.00;;;8.00;99.90;;;;;;4954077;28;20058;-63
2024/02/06 01:11:03;;;;;;;15.68;5.20;;;8.10;99.90;;;;;;4970500;28;20018;-62
2024/02/06 01:13:29;;;;;;;7.97;2.95;;;8.00;99.90;;;;;;4970731;28;20019;-62
2024/02/06 01:15:54;;;;;;;9.88;3.65;;;8.00;99.90;;;;;;4953329;28;20034;-62
2024/02/06 01:18:20;;;;;;;12.98;4.88;;;8.00;99.90;;;;;;4970775;28;20042;-63
2024/02/06 01:20:45;;;;;;;15.50;3.33;;;8.10;99.90;;;;;;4951939;28;20121;-62
2024/02/06 01:23:11;;;;;;;17.17;3.85;;;8.00;99.90;;;;;;4970729;28;20125;-62
2024/02/06 01:25:37;;;;;;;13.23;4.88;;;8.10;99.90;;;;;;4969718;28;20681;-62
2024/02/06 01:28:03;;;;;;;22.33;5.38;;;8.10;99.90;;;;;;4970794;28;20065;-62
2024/02/06 01:30:29;;;;;;;10.63;3.28;;;8.20;99.90;;;;;;4969772;28;20495;-62
2024/02/06 01:32:55;;;;;;;10.32;3.83;;;8.20;99.90;;;;;;4970333;28;20466;-62
2024/02/06 01:35:21;;;;;;;8.98;3.40;;;8.20;99.90;;;;;;4970829;28;20102;-62
2024/02/06 01:37:46;;;;;;;10.70;4.45;;;8.20;99.90;;;;;;4970544;28;20118;-62
2024/02/06 01:40:12;;;;;;;14.07;4.20;;;8.30;99.90;;;;;;4970733;28;20514;-62
2024/02/06 01:42:40;;;;;;;14.55;4.10;;;8.20;99.90;;;;;;4970942;28;20077;-62
2024/02/06 01:45:06;;;;;;;11.25;3.78;;;8.30;99.90;;;;;;4970222;28;20064;-62
2024/02/06 01:47:32;;;;;;;10.40;4.22;;;8.30;99.90;;;;;;4970649;28;20423;-62
2024/02/06 01:49:58;;;;;;;12.43;3.97;;;8.30;99.90;;;;;;4967855;28;20098;-62
2024/02/06 01:52:25;;;;;;;11.23;3.45;;;8.30;99.90;;;;;;4968660;28;20030;-62
2024/02/06 01:54:50;;;;;;;10.40;4.38;;;8.30;99.90;;;;;;4968268;28;20041;-61
2024/02/06 01:57:17;;;;;;;9.13;3.20;;;8.30;99.90;;;;;;4970600;28;20027;-61
2024/02/06 01:59:43;;;;;;;11.70;3.80;;;8.40;99.90;;;;;;4952982;28;20033;-62
2024/02/06 02:02:09;;;;;;;16.75;4.13;;;8.40;99.90;;;;;;4970179;28;20034;-62
2024/02/06 02:04:35;;;;;;;10.43;3.20;;;8.50;99.90;;;;;;4970053;28;20030;-62
2024/02/06 02:07:01;;;;;;;10.35;3.78;;;8.40;99.90;;;;;;4970256;28;20497;-62
2024/02/06 02:09:26;;;;;;;10.68;3.70;;;8.50;99.90;;;;;;4970140;28;20109;-62
2024/02/06 02:11:52;;;;;;;9.27;3.90;;;8.50;99.90;;;;;;4970019;28;20019;-61
2024/02/06 02:14:18;;;;;;;11.18;3.40;;;8.50;99.90;;;;;;4969655;28;20030;-62
2024/02/06 02:16:44;;;;;;;11.38;3.50;;;8.50;99.90;;;;;;4970578;28;20026;-62
2024/02/06 02:19:10;;;;;;;8.63;2.75;;;8.50;99.90;;;;;;4967714;28;20134;-62
2024/02/06 02:21:37;;;;;;;15.27;3.33;;;8.60;99.90;;;;;;4967994;28;20122;-62
2024/02/06 02:24:03;;;;;;;11.80;3.28;;;8.50;99.90;;;;;;4969547;28;20011;-62
2024/02/06 02:26:30;;;;;;;12.02;3.00;;;8.60;99.90;;;;;;4970209;28;20030;-61
2024/02/06 02:28:56;;;;;;;11.45;3.60;;;8.60;99.90;;;;;;4969302;28;20475;-62
2024/02/06 02:31:23;;;;;;;13.40;3.35;;;8.60;99.90;;;;;;4970080;28;20025;-61
2024/02/06 02:33:49;;;;;;;10.82;3.08;;;8.60;99.90;;;;;;4969063;28;20035;-61
2024/02/06 02:36:15;;;;;;;17.48;4.22;;;8.70;99.90;;;;;;4953390;28;20500;-61
2024/02/06 02:38:41;;;;;;;9.50;4.15;;;8.60;99.90;;;;;;4969723;28;20111;-60
2024/02/06 02:41:07;;;;;;;8.25;2.42;;;8.60;99.90;;;;;;4969718;28;20352;-60
2024/02/06 02:43:33;;;;;;;13.43;2.95;;;8.60;99.90;;;;;;4969487;28;20105;-62
2024/02/06 02:45:58;;;;;;;15.48;3.42;;;8.70;99.90;;;;;;4969130;28;20033;-61
2024/02/06 02:48:24;;;;;;;10.75;3.42;;;8.70;99.90;;;;;;4968407;28;20027;-60
2024/02/06 02:50:49;;;;;;;7.90;3.17;;;8.60;99.90;;;;;;4967824;28;20038;-61
2024/02/06 02:53:15;;;;;;;11.25;3.30;;;8.70;99.90;;;;;;4968329;28;20026;-61
2024/02/06 02:55:41;;;;;;;9.98;3.13;;;8.70;99.90;;;;;;4968852;28;20023;-61
2024/02/06 02:58:06;;;;;;;11.50;3.08;;;8.70;99.90;;;;;;4968163;28;20023;-61
2024/02/06 03:00:34;;;;;;;15.35;3.00;;;8.70;99.90;;;;;;4970085;28;20081;-61
2024/02/06 03:03:00;;;;;;;6.82;2.65;;;8.60;99.90;;;;;;4971321;28;20406;-60
2024/02/06 03:05:25;;;;;;;11.32;3.05;;;8.70;99.90;;;;;;4972525;28;20023;-61
2024/02/06 03:07:51;;;;;;;11.00;3.30;;;8.80;99.90;;;;;;4972504;28;20027;-61
2024/02/06 03:10:16;;;;;;;12.25;4.13;;;8.70;99.90;;;;;;4972337;28;20494;-60
2024/02/06 03:12:42;;;;;;;10.65;3.58;;;8.70;99.90;;;;;;4973284;28;20107;-60
2024/02/06 03:15:08;;;;;;;13.20;4.10;;;8.70;99.90;;;;;;4971936;28;20033;-61
2024/02/06 03:17:33;;;;;;;11.07;4.07;;;8.70;99.90;;;;;;4973031;28;20034;-60
2024/02/06 03:20:01;;;;;;;11.77;3.35;;;8.70;99.90;;;;;;4970975;28;20050;-60
2024/02/06 03:22:30;;;;;;;7.97;2.80;;;8.70;99.90;;;;;;4973217;28;20057;-61
2024/02/06 03:24:55;;;;;;;15.35;4.13;;;8.70;99.90;;;;;;4955166;28;20031;-61
2024/02/06 03:27:21;;;;;;;9.27;3.40;;;8.70;99.90;;;;;;4973880;28;20362;-60
2024/02/06 03:29:46;;;;;;;10.45;3.50;;;8.70;99.90;;;;;;4973291;28;20035;-61
2024/02/06 03:32:12;;;;;;;13.23;3.95;;;8.70;99.90;;;;;;4972833;28;20025;-61
2024/02/06 03:34:38;;;;;;;14.57;3.90;;;8.70;99.90;;;;;;4972884;28;20097;-61
2024/02/06 03:37:04;;;;;;;12.10;3.20;;;8.80;99.90;;;;;;4969663;28;20038;-61
2024/02/06 03:39:29;;;;;;;10.73;3.55;;;8.80;99.90;;;;;;4973023;28;20106;-61
2024/02/06 03:41:55;;;;;;;14.85;3.80;;;8.70;99.90;;;;;;4957574;28;20453;-63
2024/02/06 03:44:22;;;;;;;9.05;3.83;;;8.70;99.90;;;;;;4969106;28;20131;-62
2024/02/06 03:46:47;;;;;;;13.07;3.85;;;8.70;99.90;;;;;;4971665;28;20059;-63
2024/02/06 03:49:13;;;;;;;9.77;3.08;;;8.70;99.90;;;;;;4973192;28;20058;-63
2024/02/06 03:51:39;;;;;;;11.35;2.85;;;8.80;99.90;;;;;;4968647;28;20038;-62
2024/02/06 03:54:05;;;;;;;10.35;3.70;;;8.80;99.90;;;;;;4968663;28;20058;-63
2024/02/06 03:56:31;;;;;;;9.45;3.60;;;8.80;99.90;;;;;;4976198;28;20501;-63
2024/02/06 03:58:56;;;;;;;13.05;3.35;;;8.80;99.90;;;;;;4969059;28;20058;-63
2024/02/06 04:01:22;;;;;;;15.07;3.50;;;8.80;99.90;;;;;;4972776;28;20031;-63
2024/02/06 04:03:47;;;;;;;12.38;3.28;;;8.80;99.90;;;;;;4970648;28;20027;-64
2024/02/06 04:06:14;;;;;;;8.63;3.13;;;8.80;99.90;;;;;;4968002;28;20023;-64
2024/02/06 04:08:43;;;;;;;9.68;2.85;;;8.90;99.90;;;;;;4970257;28;20034;-63
2024/02/06 04:11:09;;;;;;;9.02;2.97;;;8.80;99.90;;;;;;4953914;28;20034;-63
2024/02/06 04:13:36;;;;;;;10.35;4.18;;;8.90;99.90;;;;;;4967124;28;20019;-63
2024/02/06 04:16:04;;;;;;;12.68;3.33;;;8.80;99.90;;;;;;4968345;28;20054;-64
2024/02/06 04:18:30;;;;;;;10.32;3.05;;;8.90;99.90;;;;;;4972466;28;20101;-64
2024/02/06 04:20:56;;;;;;;13.80;3.80;;;8.90;99.90;;;;;;4975063;28;20839;-63
2024/02/06 04:23:21;;;;;;;9.88;3.15;;;8.80;99.90;;;;;;4972464;28;20058;-63
2024/02/06 04:25:47;;;;;;;8.73;3.50;;;8.90;99.90;;;;;;4972844;28;20031;-63
2024/02/06 04:28:13;;;;;;;11.18;4.28;;;9.00;99.90;;;;;;4954741;28;20038;-63
2024/02/06 04:30:38;;;;;;;10.63;3.47;;;9.10;99.90;;;;;;4967992;28;20062;-64
2024/02/06 04:33:04;;;;;;;13.60;3.72;;;9.00;99.90;;;;;;4971641;28;20074;-63
2024/02/06 04:35:30;;;;;;;10.70;3.20;;;9.00;99.90;;;;;;4969911;28;20666;-63
2024/02/06 04:37:56;;;;;;;9.82;2.88;;;8.90;99.90;;;;;;4970199;28;20157;-63
2024/02/06 04:40:22;;;;;;;7.20;3.28;;;8.90;99.90;;;;;;4969224;28;20597;-63
2024/02/06 04:42:47;;;;;;;10.57;3.78;;;8.90;99.90;;;;;;4972060;28;20023;-64
2024/02/06 04:45:13;;;;;;;12.32;3.42;;;8.90;99.90;;;;;;4952369;28;20023;-63
2024/02/06 04:47:38;;;;;;;12.15;3.40;;;9.00;99.90;;;;;;4971926;28;20050;-63
2024/02/06 04:50:05;;;;;;;7.10;2.85;;;8.90;99.90;;;;;;4967791;28;20062;-63
2024/02/06 04:52:31;;;;;;;9.18;2.58;;;9.00;99.90;;;;;;4972098;28;20015;-63
2024/02/06 04:54:58;;;;;;;9.15;3.33;;;9.10;99.90;;;;;;4971771;28;20514;-63
2024/02/06 04:57:24;;;;;;;15.38;3.05;;;9.00;99.90;;;;;;4953223;28;20093;-63
2024/02/06 04:59:50;;;;;;;10.65;3.90;;;9.10;99.90;;;;;;4967749;28;20035;-62
2024/02/06 05:02:15;;;;;;;12.40;3.33;;;9.10;99.90;;;;;;4966730;28;20042;-62
2024/02/06 05:04:41;;;;;;;12.02;3.30;;;9.10;99.90;;;;;;4968339;28;20482;-62
2024/02/06 05:07:07;;;;;;;14.27;3.10;;;9.10;99.90;;;;;;4969511;28;20027;-62
2024/02/06 05:09:33;;;;;;;10.63;3.35;;;9.20;99.90;;;;;;4959808;28;20648;-62
2024/02/06 05:12:01;;;;;;;8.43;3.05;;;9.10;99.90;;;;;;4969247;28;20130;-63
2024/02/06 05:14:30;;;;;;;10.70;2.95;;;9.10;99.90;;;;;;4971192;28;20031;-62
2024/02/06 05:16:56;;;;;;;8.95;3.22;;;9.10;99.90;;;;;;4964092;28;20023;-62
2024/02/06 05:19:21;;;;;;;12.40;3.58;;;9.10;99.90;;;;;;4969893;28;20886;-61
2024/02/06 05:21:47;;;;;;;10.20;3.00;;;9.10;99.90;;;;;;4970188;28;20031;-61
2024/02/06 05:24:13;;;;;;;13.68;4.13;;;9.00;99.90;;;;;;4970440;28;20106;-61
2024/02/06 05:26:39;;;;;;;10.32;3.65;;;9.00;99.90;;;;;;4971156;28;20107;-61
2024/02/06 05:29:07;;;;;;;16.85;3.67;;;9.00;99.90;;;;;;4969972;28;20220;-61
2024/02/06 05:31:33;;;;;;;11.32;3.72;;;8.90;99.90;;;;;;4971323;28;20027;-62
2024/02/06 05:33:59;;;;;;;6.95;2.33;;;8.90;99.90;;;;;;4968816;28;20023;-61
2024/02/06 05:36:25;;;;;;;9.77;3.35;;;8.90;99.90;;;;;;4972457;28;20023;-61
2024/02/06 05:38:51;;;;;;;10.70;2.67;;;8.90;99.90;;;;;;4969942;28;20054;-61
2024/02/06 05:41:20;;;;;;;10.48;3.45;;;8.80;99.90;;;;;;4974040;28;20081;-61
2024/02/06 05:43:45;;;;;;;10.13;3.70;;;8.90;99.90;;;;;;4969818;28;20034;-61
2024/02/06 05:46:11;;;;;;;9.38;3.28;;;8.90;99.90;;;;;;4970051;28;20123;-61
2024/02/06 05:48:36;;;;;;;9.15;2.97;;;8.90;99.90;;;;;;4969340;28;20022;-61
2024/02/06 05:51:06;;;;;;;9.93;3.60;;;8.90;99.90;;;;;;4956015;28;20031;-61
2024/02/06 05:53:35;;;;;;;13.93;4.45;;;8.90;99.90;;;;;;4970404;28;20050;-61
2024/02/06 05:56:03;;;;;;;14.13;4.35;;;8.90;99.90;;;;;;4968122;28;20085;-61
2024/02/06 05:58:29;;;;;;;15.32;4.45;;;8.80;99.90;;;;;;4969238;28;20705;-61
2024/02/06 06:00:55;;;;;;;12.82;3.70;;;8.70;99.90;;;;;;4967883;28;20058;-62
2024/02/06 06:03:21;;;;;;;14.57;4.45;;;8.70;99.90;;;;;;4969900;28;20482;-62
2024/02/06 06:05:46;;;;;;;10.25;4.10;;;8.60;99.90;;;;;;4970831;28;20034;-62
2024/02/06 06:08:12;;;;;;;11.90;4.47;;;8.50;99.90;;;;;;4971300;28;20026;-62
2024/02/06 06:10:38;;;;;;;13.68;4.32;;;8.50;99.90;;;;;;4968645;28;20529;-62
2024/02/06 06:13:04;;;;;;;10.35;4.40;;;8.50;99.90;;;;;;4969887;28;20549;-62
2024/02/06 06:15:30;;;;;;;14.80;5.10;;;8.40;99.90;;;;;;4971277;28;20041;-61
2024/02/06 06:17:55;;;;;;;15.27;3.95;;;8.40;99.90;;;;;;4967127;28;20027;-62
2024/02/06 06:20:21;;;;;;;10.10;3.78;;;8.40;99.90;;;;;;4970304;28;20455;-62
2024/02/06 06:22:47;;;;;;;12.43;4.07;;;8.60;99.90;;;;;;4971707;28;20054;-61
2024/02/06 06:25:13;;;;;;;15.48;4.95;;;8.60;99.90;;;;;;4966020;28;20522;-62
2024/02/06 06:27:41;;;;;;;14.02;4.40;;;8.50;99.90;;;;;;4967759;28;20058;-61
2024/02/06 06:30:08;;;;;;;13.23;4.10;;;8.50;99.90;;;;;;4962083;28;20024;-61
2024/02/06 06:32:34;;;;;;;12.43;4.60;;;8.60;99.90;;;;;;4968348;28;20038;-60
2024/02/06 06:35:00;;;;;;;13.60;4.43;;;8.70;99.90;;;;;;4967370;28;20026;-61
2024/02/06 06:37:26;;;;;;;15.70;4.43;;;8.60;99.90;;;;;;4973450;28;20077;-61
2024/02/06 06:39:53;;;;;;;7.57;3.03;;;8.60;99.90;;;;;;4947604;28;20652;-62
2024/02/06 06:42:19;;;;;;;11.88;4.22;;;8.70;99.90;;;;;;4964283;28;20019;-61
2024/02/06 06:44:45;;;;;;;13.30;3.63;;;8.80;99.90;;;;;;4966690;28;20046;-61
2024/02/06 06:47:11;;;;;;;11.50;4.38;;;8.80;99.90;;;;;;4968165;28;20037;-61
2024/02/06 06:49:37;;;;;;;12.68;3.80;;;8.90;99.90;;;;;;4970297;28;20106;-62
2024/02/06 06:52:03;;;;;;;11.95;4.35;;;8.90;99.90;;;;;;4966285;28;20027;-61
2024/02/06 06:54:28;;;;;;;16.05;3.63;;;8.90;99.90;;;;;;4968872;28;20031;-61
2024/02/06 06:56:54;;;;;;;9.95;3.80;;;8.90;99.90;;;;;;4967772;28;20050;-61
2024/02/06 06:59:19;;;;;;;10.57;3.50;;;9.00;99.90;;;;;;4961955;28;20028;-61
2024/02/06 07:01:46;;;;;;;13.02;4.43;;;9.00;99.90;;;;;;4948827;29;20043;-61
2024/02/06 07:04:12;;;;;;;15.02;4.45;;;9.10;99.90;;;;;;4962540;28;20121;-63
2024/02/06 07:06:38;;;;;;;10.98;4.07;;;9.00;99.90;;;;;;4951380;28;20126;-63
2024/02/06 07:09:04;;;;;;;11.73;4.53;;;9.00;99.90;;;;;;4967573;28;20030;-62
2024/02/06 07:11:29;;;;;;;13.32;5.43;;;9.00;99.90;;;;;;4967971;28;20023;-62
2024/02/06 07:13:55;;;;;;;11.07;3.50;;;9.00;99.90;;;;;;4949225;28;20054;-63
2024/02/06 07:16:20;;;;;;;11.18;3.72;;;9.10;99.90;;;;;;4948310;29;20437;-62
2024/02/06 07:18:46;;;;;;;16.92;5.10;;;9.10;99.90;;;;;;4949116;28;20059;-62
2024/02/06 07:21:12;;;;;;;14.00;4.30;;;9.10;99.90;;;;;;4930950;28;20229;-62
2024/02/06 07:23:37;;;;;;;11.30;4.13;;;9.10;99.90;;;;;;4949271;28;20069;-62
2024/02/06 07:26:07;;;;;;;11.05;3.70;;;9.20;99.90;;;;;;4948161;29;20034;-63
2024/02/06 07:28:32;;;;;;;10.77;3.87;;;9.20;99.90;;;;;;4949299;29;20118;-62
2024/02/06 07:30:58;;;;;;;11.23;4.18;;;9.20;99.90;;;;;;4949154;29;20106;-62
2024/02/06 07:33:23;;;;;;;14.35;4.55;;;9.20;99.90;;;;;;4948492;29;20020;-62
2024/02/06 07:35:49;;;;;;;12.07;4.47;;;9.20;99.90;;;;;;4951351;28;20150;-62
2024/02/06 07:38:14;;;;;;;16.70;4.57;;;9.10;99.90;;;;;;4930390;29;20047;-62
2024/02/06 07:40:40;;;;;;;17.42;4.68;;;9.20;99.90;;;;;;4948673;29;20031;-62
2024/02/06 07:43:06;;;;;;;14.93;5.78;;;9.20;99.90;;;;;;4931210;29;20046;-62
2024/02/06 07:45:32;;;;;;;10.70;3.67;;;9.20;99.90;;;;;;4948527;29;20425;-62
2024/02/06 07:47:57;;;;;;;9.48;3.58;;;9.30;99.90;;;;;;4951332;28;20027;-62
2024/02/06 07:50:24;;;;;;;14.57;5.28;;;9.20;99.90;;;;;;4965959;28;20729;-62
2024/02/06 07:52:49;;;;;;;11.90;4.30;;;9.20;99.90;;;;;;4951313;29;20047;-62
2024/02/06 07:55:15;;;;;;;14.68;4.95;;;9.20;99.90;;;;;;4952033;29;20031;-63
2024/02/06 07:57:41;;;;;;;12.02;3.90;;;9.20;99.90;;;;;;4952420;29;20046;-62
2024/02/06 08:00:09;;;;;;;15.07;4.93;;;9.20;99.90;;;;;;4951431;29;20082;-62
2024/02/06 08:02:35;;;;;;;13.57;4.28;;;9.20;99.90;;;;;;4952804;29;20033;-63
2024/02/06 08:05:00;;;;;;;10.18;3.88;;;9.30;99.90;;;;;;4952224;29;20031;-62
2024/02/06 08:07:28;;;;;;;7.75;3.42;;;9.20;99.90;;;;;;4952815;29;20050;-62
2024/02/06 08:09:54;;;;;;;13.98;4.00;;;9.20;99.90;;;;;;4951040;29;20082;-63
2024/02/06 08:12:19;;;;;;;15.10;4.68;;;9.20;99.90;;;;;;4952699;29;20428;-62
2024/02/06 08:14:45;;;;;;;9.50;3.75;;;9.30;99.90;;;;;;4951211;29;20106;-62
2024/02/06 08:17:10;;;;;;;9.55;3.00;;;9.30;99.90;;;;;;4941688;29;20031;-62
2024/02/06 08:19:36;;;;;;;12.20;3.17;;;9.30;99.90;;;;;;4951876;29;20110;-62
2024/02/06 08:22:02;;;;;;;12.40;3.75;;;9.30;99.90;;;;;;4950163;29;20027;-63
2024/02/06 08:24:27;;;;;;;13.45;3.90;;;9.30;99.90;;;;;;4951272;29;20423;-62
2024/02/06 08:26:54;;;;;;;11.52;3.50;;;9.40;99.90;;;;;;4951901;29;20030;-64
2024/02/06 08:29:20;;;;;;;9.95;4.28;;;9.40;99.90;;;;;;4951891;29;20032;-62
2024/02/06 08:31:46;;;;;;;13.95;4.53;;;9.40;99.90;;;;;;4952275;29;20027;-62
2024/02/06 08:34:13;;;;;;;7.93;2.67;;;9.40;99.90;;;;;;4950931;29;20098;-63
2024/02/06 08:36:39;;;;;;;13.90;4.30;;;9.40;99.90;;;;;;4969052;28;20032;-63
2024/02/06 08:39:06;;;;;;;14.73;4.47;;;9.40;99.90;;;;;;4950834;29;20538;-63
2024/02/06 08:41:35;;;;;;;13.02;3.50;;;9.40;99.90;;;;;;4951890;29;20086;-63
2024/02/06 08:44:01;;;;;;;13.75;4.82;;;9.30;99.90;;;;;;4953419;28;20042;-62
2024/02/06 08:46:29;;;;;;;13.90;4.07;;;9.20;99.90;;;;;;4952011;28;20478;-63
2024/02/06 08:48:55;;;;;;;19.20;4.35;;;9.20;99.90;;;;;;4951642;29;20031;-62
2024/02/06 08:51:21;;;;;;;15.90;5.68;;;9.20;99.90;;;;;;4950555;29;20045;-63
2024/02/06 08:53:46;;;;;;;21.70;4.35;;;9.10;99.90;;;;;;4951643;29;20057;-62
2024/02/06 08:56:12;;;;;;;14.00;4.57;;;9.10;99.90;;;;;;4951179;29;20432;-62
2024/02/06 08:58:38;;;;;;;12.43;4.60;;;9.20;99.90;;;;;;4950437;28;20050;-62
2024/02/06 09:01:04;;;;;;;12.95;3.05;;;9.30;99.90;;;;;;4951480;29;20110;-62
2024/02/06 09:03:29;;;;;;;10.88;3.95;;;9.30;99.90;;;;;;4951160;29;20034;-63
2024/02/06 09:05:56;;;;;;;13.05;4.05;;;9.30;99.90;;;;;;4947474;29;20055;-63
2024/02/06 09:08:22;;;;;;;12.75;2.90;;;9.50;99.90;;;;;;4965779;28;20152;-62
2024/02/06 09:10:48;;;;;;;12.60;4.32;;;9.60;99.90;;;;;;4951540;29;20027;-62
2024/02/06 09:13:13;;;;;;;13.70;3.58;;;9.70;99.90;;;;;;4950412;29;20034;-62
2024/02/06 09:15:39;;;;;;;12.88;3.63;;;9.70;99.90;;;;;;4943406;29;20023;-62
2024/02/06 09:18:05;;;;;;;9.80;3.40;;;9.70;99.90;;;;;;4950404;29;20055;-63
2024/02/06 09:20:30;;;;;;;11.93;3.22;;;9.80;99.90;;;;;;4946421;29;20050;-63
2024/02/06 09:22:56;;;;;;;12.80;3.60;;;9.80;99.90;;;;;;4950139;29;20422;-62
2024/02/06 09:25:22;;;;;;;10.82;3.42;;;9.90;99.90;;;;;;4949837;29;20043;-62
2024/02/06 09:27:47;;;;;;;11.38;4.05;;;9.90;99.90;;;;;;4950498;29;20035;-61
2024/02/06 09:30:13;;;;;;;11.05;4.55;;;9.90;99.90;;;;;;4964849;28;20117;-60
2024/02/06 09:32:40;;;;;;;13.77;3.70;;;9.90;99.90;;;;;;4950169;29;20395;-60
2024/02/06 09:35:06;;;;;;;10.93;3.25;;;10.00;99.90;;;;;;4947917;28;20051;-61
2024/02/06 09:37:32;;;;;;;12.40;3.80;;;10.00;99.90;;;;;;4952176;28;20031;-60
2024/02/06 09:39:58;;;;;;;9.88;2.80;;;10.00;99.90;;;;;;4946464;29;20446;-60
2024/02/06 09:42:23;;;;;;;8.13;2.88;;;10.00;99.90;;;;;;4950551;29;20024;-60
2024/02/06 09:44:49;;;;;;;8.98;2.35;;;10.00;99.90;;;;;;4945536;29;20117;-61
2024/02/06 09:47:15;;;;;;;9.90;2.72;;;10.10;99.90;;;;;;4933505;29;20028;-60
2024/02/06 09:49:41;;;;;;;5.38;2.00;;;10.20;99.90;;;;;;4946406;29;20542;-61
2024/02/06 09:52:08;;;;;;;9.95;3.15;;;10.20;99.90;;;;;;4931233;29;20118;-60
2024/02/06 09:54:37;;;;;;;11.82;2.33;;;10.30;99.90;;;;;;4946649;29;20030;-61
2024/02/06 09:57:05;;;;;;;9.02;2.85;;;10.30;99.90;;;;;;4950036;29;20118;-60
2024/02/06 09:59:32;;;;;;;16.27;4.15;;;10.20;99.90;;;;;;4950371;29;20027;-61
2024/02/06 10:02:00;;;;;;;15.35;3.40;;;10.10;99.90;;;;;;4949503;29;20031;-61
2024/02/06 10:04:30;;;;;;;11.63;3.10;;;10.00;99.90;;;;;;4949146;29;20086;-60
2024/02/06 10:06:56;;;;;;;;;;;9.90;99.90;;;;;;4946985;29;20038;-60
2024/02/06 10:09:23;;;;;;;12.20;3.30;;;9.70;99.90;;;;;;4949721;28;19911;-61
2024/02/06 10:11:48;;;;;;;10.57;3.33;;;9.60;99.90;;;;;;4946103;29;20081;-61
2024/02/06 10:14:15;;;;;;;10.93;3.50;;;9.50;99.90;;;;;;4949810;29;20117;-61
2024/02/06 10:16:41;;;;;;;10.20;3.83;;;9.50;99.90;;;;;;4947254;29;20031;-61
2024/02/06 10:19:07;;;;;;;11.80;4.00;;;9.50;99.90;;;;;;4948927;29;20121;-61
2024/02/06 10:21:33;;;;;;;12.65;5.05;;;9.50;99.90;;;;;;4945864;29;20058;-61
2024/02/06 10:24:04;;;;;;;8.60;3.05;;;9.40;99.90;;;;;;4949289;28;20136;-61
2024/02/06 10:26:31;;;;;;;8.98;3.60;;;9.50;99.90;;;;;;4946942;29;20035;-61
2024/02/06 10:29:17;;;;;;;10.38;3.80;;;9.50;99.90;;;;;;4948611;29;20028;-61
2024/02/06 10:31:43;;;;;;;11.45;4.05;;;9.50;99.90;;;;;;4948929;29;20023;-60
2024/02/06 10:34:12;;;;;;;11.10;3.92;;;9.60;99.90;;;;;;4948924;29;20027;-61
2024/02/06 10:36:41;;;;;;;11.63;3.40;;;9.70;99.90;;;;;;4948419;28;20620;-62
2024/02/06 10:39:09;;;;;;;11.35;3.70;;;9.80;99.90;;;;;;4946482;29;20106;-61
2024/02/06 10:41:35;;;;;;;10.68;3.22;;;9.90;99.90;;;;;;4947194;29;20027;-61
2024/02/06 10:44:10;;;;;;;14.65;3.83;;;9.90;99.90;;;;;;4948537;29;20172;-61
2024/02/06 10:46:36;;;;;;;10.10;4.07;;;10.00;99.90;;;;;;4947291;29;20023;-61
2024/02/06 10:49:05;;;;;;;10.48;3.63;;;10.00;99.90;;;;;;4948879;29;20043;-61
2024/02/06 10:51:32;;;;;;;15.38;4.68;;;9.90;99.90;;;;;;4946108;29;20035;-61
2024/02/06 10:53:58;;;;;;;14.18;3.55;;;9.70;99.90;;;;;;4948895;29;20023;-61
2024/02/06 10:56:25;;;;;;;14.95;4.50;;;9.60;99.90;;;;;;4947656;29;20035;-62
2024/02/06 10:58:57;;;;;;;13.02;4.38;;;9.50;99.90;;;;;;4948590;29;20054;-60
2024/02/06 11:01:37;;;;;;;13.05;4.32;;;9.40;99.90;;;;;;4946539;29;20023;-61
2024/02/06 11:04:08;;;;;;;14.82;4.88;;;9.40;99.90;;;;;;4946906;29;20030;-61
2024/02/06 11:06:50;;;;;;;13.02;4.97;;;9.40;99.90;;;;;;4947393;29;20023;-61
2024/02/06 11:09:20;;;;;;;17.13;4.93;;;9.30;99.90;;;;;;4949381;29;20035;-61
2024/02/06 11:11:47;;;;;;;15.43;5.07;;;9.30;99.90;;;;;;4947691;29;20031;-61
2024/02/06 11:14:14;;;;;;;12.73;4.93;;;9.30;99.90;;;;;;4948711;29;20024;-61
2024/02/06 11:17:01;;;;;;;11.70;3.92;;;9.30;99.90;;;;;;4949857;29;20071;-61
2024/02/06 11:19:59;;;;;;;13.90;5.07;;;9.30;99.90;;;;;;4943948;29;20090;-60
2024/02/06 11:22:44;;;;;;;9.80;3.67;;;9.30;99.90;;;;;;4951200;28;20073;-61
2024/02/06 11:25:13;;;;;;;13.48;5.32;;;9.40;99.90;;;;;;4950951;29;20059;-61
2024/02/06 11:27:39;;;;;;;9.02;3.72;;;9.40;99.90;;;;;;4953070;29;20023;-61
2024/02/06 11:30:06;;;;;;;14.70;4.57;;;9.40;99.90;;;;;;4950707;29;20119;-61
2024/02/06 11:32:33;;;;;;;14.05;4.70;;;9.40;99.90;;;;;;4952873;29;20020;-61
2024/02/06 11:34:59;;;;;;;14.25;4.45;;;9.50;99.90;;;;;;4951088;29;20484;-60
2024/02/06 11:37:28;;;;;;;12.50;3.85;;;9.50;99.90;;;;;;4943399;29;20094;-61
2024/02/06 11:40:08;;;;;;;10.30;4.53;;;9.50;99.90;;;;;;4950613;29;20042;-61
2024/02/06 11:42:37;;;;;;;11.02;4.05;;;9.50;99.90;;;;;;4953077;29;20038;-61
2024/02/06 11:45:10;;;;;;;13.57;5.17;;;9.60;99.90;;;;;;4955650;28;20045;-60
2024/02/06 11:47:38;;;;;;;15.43;4.43;;;9.60;99.90;;;;;;4967873;28;20023;-61
2024/02/06 11:50:11;;;;;;;10.15;3.30;;;9.60;99.90;;;;;;4949434;29;20035;-61
2024/02/06 11:52:37;;;;;;;19.25;5.72;;;9.60;99.90;;;;;;4952724;29;20027;-60
2024/02/06 11:55:04;;;;;;;16.13;4.15;;;9.60;99.90;;;;;;4950642;29;20024;-60
2024/02/06 11:57:31;;;;;;;13.88;5.75;;;9.60;99.90;;;;;;4952860;29;20063;-60
2024/02/06 11:59:58;;;;;;;17.00;4.45;;;9.50;99.90;;;;;;4952329;29;20079;-60
2024/02/06 12:02:24;;;;;;;10.23;3.88;;;9.50;99.90;;;;;;4953147;29;20451;-60
2024/02/06 12:04:50;;;;;;;14.38;5.30;;;9.40;99.90;;;;;;4965474;28;20034;-60
2024/02/06 12:07:17;;;;;;;14.57;5.80;;;9.30;99.90;;;;;;4952996;29;20028;-60
2024/02/06 12:09:43;;;;;;;16.15;5.40;;;9.30;99.90;;;;;;4951651;29;20024;-60
2024/02/06 12:12:11;;;;;;;21.75;5.70;;;9.30;99.90;;;;;;4951258;29;20039;-60
2024/02/06 12:14:38;;;;;;;13.60;5.28;;;9.20;99.90;;;;;;4951372;29;20027;-60
2024/02/06 12:17:05;;;;;;;16.83;5.68;;;9.30;99.90;;;;;;4934750;29;20118;-60
2024/02/06 12:19:31;;;;;;;16.48;6.00;;;9.20;99.90;;;;;;4953112;28;20126;-60
2024/02/06 12:22:05;;;;;;;17.10;6.32;;;9.30;99.90;;;;;;4949071;29;20150;-60
2024/02/06 12:24:31;;;;;;;13.35;4.63;;;9.30;99.90;;;;;;4951815;29;20641;-60
2024/02/06 12:27:07;;;;;;;13.85;4.88;;;9.30;99.90;;;;;;4950342;29;20523;-60
2024/02/06 12:29:41;;;;;;;14.15;6.22;;;9.30;99.90;;;;;;4952449;29;20015;-60
2024/02/06 12:32:08;;;;;;;11.98;4.93;;;9.30;99.90;;;;;;4951946;29;20087;-60
2024/02/06 12:34:34;;;;;;;11.38;5.03;;;9.30;99.90;;;;;;4950798;28;20028;-60
2024/02/06 12:37:01;;;;;;;15.80;5.65;;;9.30;99.90;;;;;;4955376;28;20098;-60
2024/02/06 12:39:30;;;;;;;16.55;6.70;;;9.30;99.90;;;;;;4966894;28;20058;-60
2024/02/06 12:42:06;;;;;;;13.57;4.78;;;9.30;99.90;;;;;;4950542;29;20032;-60
2024/02/06 12:44:33;;;;;;;11.75;4.57;;;9.30;99.90;;;;;;4951729;29;20024;-60